sensor_id;sensor_type;location;lat;lon;timestamp;pressure;altitude;pressure_sealevel;temperature;humidity
69622;BME280;56841;55.964;37.674;2023-03-15T00:00:46;98880.44;;;4.89;54.06
69622;BME280;56841;55.964;37.674;2023-03-15T00:03:12;98870.69;;;4.82;53.94
69622;BME280;56841;55.964;37.674;2023-03-15T00:05:42;98874.81;;;4.84;54.20
69622;BME280;56841;55.964;37.674;2023-03-15T00:08:08;98861.59;;;4.86;54.45
69622;BME280;56841;55.964;37.674;2023-03-15T00:10:34;98868.53;;;4.77;54.58
69622;BME280;56841;55.964;37.674;2023-03-15T00:12:59;98858.09;;;4.77;54.32
69622;BME280;56841;55.964;37.674;2023-03-15T00:15:25;98878.03;;;4.78;54.82
69622;BME280;56841;55.964;37.674;2023-03-15T00:17:51;98875.19;;;4.71;54.81
69622;BME280;56841;55.964;37.674;2023-03-15T00:20:17;98878.25;;;4.67;55.07
69622;BME280;56841;55.964;37.674;2023-03-15T00:22:44;98872.13;;;4.76;54.98
69622;BME280;56841;55.964;37.674;2023-03-15T00:25:10;98874.66;;;4.68;55.17
69622;BME280;56841;55.964;37.674;2023-03-15T00:27:36;98869.41;;;4.68;55.36
69622;BME280;56841;55.964;37.674;2023-03-15T00:30:03;98874.00;;;4.66;55.28
69622;BME280;56841;55.964;37.674;2023-03-15T00:32:31;98876.09;;;4.62;55.71
69622;BME280;56841;55.964;37.674;2023-03-15T00:34:57;98871.66;;;4.63;55.71
69622;BME280;56841;55.964;37.674;2023-03-15T00:37:22;98873.59;;;4.61;55.70
69622;BME280;56841;55.964;37.674;2023-03-15T00:39:50;98865.09;;;4.59;55.39
69622;BME280;56841;55.964;37.674;2023-03-15T00:42:16;98870.16;;;4.60;55.93
69622;BME280;56841;55.964;37.674;2023-03-15T00:44:43;98873.59;;;4.61;55.83
69622;BME280;56841;55.964;37.674;2023-03-15T00:47:10;98867.03;;;4.57;56.20
69622;BME280;56841;55.964;37.674;2023-03-15T00:49:38;98863.38;;;4.67;55.99
69622;BME280;56841;55.964;37.674;2023-03-15T00:52:05;98873.59;;;4.61;56.04
69622;BME280;56841;55.964;37.674;2023-03-15T00:54:31;98875.56;;;4.59;56.37
69622;BME280;56841;55.964;37.674;2023-03-15T00:57:01;98876.38;;;4.59;56.41
69622;BME280;56841;55.964;37.674;2023-03-15T00:59:28;98873.91;;;4.58;56.77
69622;BME280;56841;55.964;37.674;2023-03-15T01:02:02;98858.22;;;4.58;56.56
69622;BME280;56841;55.964;37.674;2023-03-15T01:04:28;98864.34;;;4.66;56.46
69622;BME280;56841;55.964;37.674;2023-03-15T01:06:56;98871.38;;;4.66;56.53
69622;BME280;56841;55.964;37.674;2023-03-15T01:09:22;98870.09;;;4.70;56.68
69622;BME280;56841;55.964;37.674;2023-03-15T01:11:48;98871.09;;;4.69;56.58
69622;BME280;56841;55.964;37.674;2023-03-15T01:14:14;98861.28;;;4.71;56.50
69622;BME280;56841;55.964;37.674;2023-03-15T01:16:40;98858.38;;;4.74;56.74
69622;BME280;56841;55.964;37.674;2023-03-15T01:19:08;98868.31;;;4.70;57.04
69622;BME280;56841;55.964;37.674;2023-03-15T01:21:34;98862.72;;;4.65;57.05
69622;BME280;56841;55.964;37.674;2023-03-15T01:24:00;98861.88;;;4.65;57.27
69622;BME280;56841;55.964;37.674;2023-03-15T01:26:25;98860.41;;;4.62;57.22
69622;BME280;56841;55.964;37.674;2023-03-15T01:28:51;98859.66;;;4.70;57.25
69622;BME280;56841;55.964;37.674;2023-03-15T01:31:25;98878.00;;;4.60;57.29
69622;BME280;56841;55.964;37.674;2023-03-15T01:33:52;98860.22;;;4.64;57.19
69622;BME280;56841;55.964;37.674;2023-03-15T01:36:19;98866.22;;;4.74;57.29
69622;BME280;56841;55.964;37.674;2023-03-15T01:38:45;98853.59;;;4.69;57.30
69622;BME280;56841;55.964;37.674;2023-03-15T01:41:13;98856.34;;;4.68;57.54
69622;BME280;56841;55.964;37.674;2023-03-15T01:43:41;98855.91;;;4.72;57.87
69622;BME280;56841;55.964;37.674;2023-03-15T01:46:21;98869.00;;;4.72;57.56
69622;BME280;56841;55.964;37.674;2023-03-15T01:49:13;98864.59;;;4.73;57.89
69622;BME280;56841;55.964;37.674;2023-03-15T01:51:52;98866.22;;;4.74;57.95
69622;BME280;56841;55.964;37.674;2023-03-15T01:54:33;98866.09;;;4.75;57.77
69622;BME280;56841;55.964;37.674;2023-03-15T01:59:41;98868.41;;;4.79;57.72
69622;BME280;56841;55.964;37.674;2023-03-15T02:02:09;98865.16;;;4.85;57.74
69622;BME280;56841;55.964;37.674;2023-03-15T02:04:47;98866.84;;;4.86;57.83
69622;BME280;56841;55.964;37.674;2023-03-15T02:07:17;98862.56;;;4.85;58.01
69622;BME280;56841;55.964;37.674;2023-03-15T02:10:08;98869.22;;;4.79;58.10
69622;BME280;56841;55.964;37.674;2023-03-15T02:12:43;98862.63;;;4.75;58.14
69622;BME280;56841;55.964;37.674;2023-03-15T02:15:11;98869.22;;;4.79;58.23
69622;BME280;56841;55.964;37.674;2023-03-15T02:17:40;98870.34;;;4.77;58.53
69622;BME280;56841;55.964;37.674;2023-03-15T02:28:13;98866.13;;;4.48;59.20
69622;BME280;56841;55.964;37.674;2023-03-15T02:30:42;98885.38;;;4.47;59.57
69622;BME280;56841;55.964;37.674;2023-03-15T02:33:18;98849.75;;;4.46;59.61
69622;BME280;56841;55.964;37.674;2023-03-15T02:35:45;98893.38;;;4.45;59.82
69622;BME280;56841;55.964;37.674;2023-03-15T02:38:11;98881.66;;;4.49;59.75
69622;BME280;56841;55.964;37.674;2023-03-15T02:40:37;98888.00;;;4.47;59.44
69622;BME280;56841;55.964;37.674;2023-03-15T02:43:06;98869.84;;;4.45;59.68
69622;BME280;56841;55.964;37.674;2023-03-15T02:45:34;98871.72;;;4.53;59.99
69622;BME280;56841;55.964;37.674;2023-03-15T02:48:01;98880.31;;;4.45;60.05
69622;BME280;56841;55.964;37.674;2023-03-15T02:50:30;98881.41;;;4.43;60.15
69622;BME280;56841;55.964;37.674;2023-03-15T02:52:55;98876.34;;;4.41;60.14
69622;BME280;56841;55.964;37.674;2023-03-15T02:55:21;98868.88;;;4.46;60.00
69622;BME280;56841;55.964;37.674;2023-03-15T02:57:47;98877.69;;;4.45;60.25
69622;BME280;56841;55.964;37.674;2023-03-15T03:00:14;98882.75;;;4.47;60.23
69622;BME280;56841;55.964;37.674;2023-03-15T03:02:44;98865.56;;;4.44;60.20
69622;BME280;56841;55.964;37.674;2023-03-15T03:05:12;98863.56;;;4.38;60.69
69622;BME280;56841;55.964;37.674;2023-03-15T03:07:38;98873.75;;;4.41;60.53
69622;BME280;56841;55.964;37.674;2023-03-15T03:10:09;98877.47;;;4.39;60.72
69622;BME280;56841;55.964;37.674;2023-03-15T03:12:55;98877.75;;;4.36;61.01
69622;BME280;56841;55.964;37.674;2023-03-15T03:15:28;98882.69;;;4.39;60.90
69622;BME280;56841;55.964;37.674;2023-03-15T03:17:54;98869.38;;;4.32;61.00
69622;BME280;56841;55.964;37.674;2023-03-15T03:20:22;98886.56;;;4.35;60.99
69622;BME280;56841;55.964;37.674;2023-03-15T03:22:48;98875.94;;;4.36;61.12
69622;BME280;56841;55.964;37.674;2023-03-15T03:25:15;98886.28;;;4.38;61.36
69622;BME280;56841;55.964;37.674;2023-03-15T03:27:42;98891.50;;;4.38;61.34
69622;BME280;56841;55.964;37.674;2023-03-15T03:30:12;98890.00;;;4.35;61.10
69622;BME280;56841;55.964;37.674;2023-03-15T03:32:41;98887.50;;;4.34;61.49
69622;BME280;56841;55.964;37.674;2023-03-15T03:35:07;98882.44;;;4.32;61.15
69622;BME280;56841;55.964;37.674;2023-03-15T03:37:34;98880.13;;;4.29;61.24
69622;BME280;56841;55.964;37.674;2023-03-15T03:40:09;98875.13;;;4.36;61.41
69622;BME280;56841;55.964;37.674;2023-03-15T03:42:36;98896.72;;;4.38;61.26
69622;BME280;56841;55.964;37.674;2023-03-15T03:45:03;98881.34;;;4.35;61.00
69622;BME280;56841;55.964;37.674;2023-03-15T03:47:32;98887.75;;;4.40;61.04
69622;BME280;56841;55.964;37.674;2023-03-15T03:49:59;98881.19;;;4.36;60.87
69622;BME280;56841;55.964;37.674;2023-03-15T03:52:25;98890.25;;;4.42;61.08
69622;BME280;56841;55.964;37.674;2023-03-15T03:54:54;98888.91;;;4.38;61.37
69622;BME280;56841;55.964;37.674;2023-03-15T03:57:20;98882.56;;;4.31;61.27
69622;BME280;56841;55.964;37.674;2023-03-15T03:59:46;98880.94;;;4.30;61.73
69622;BME280;56841;55.964;37.674;2023-03-15T04:02:12;98896.91;;;4.26;61.74
69622;BME280;56841;55.964;37.674;2023-03-15T04:04:43;98890.41;;;4.31;61.73
69622;BME280;56841;55.964;37.674;2023-03-15T04:07:15;98898.13;;;4.32;61.79
69622;BME280;56841;55.964;37.674;2023-03-15T04:09:41;98897.72;;;4.27;62.00
69622;BME280;56841;55.964;37.674;2023-03-15T04:12:07;98894.81;;;4.30;61.81
69622;BME280;56841;55.964;37.674;2023-03-15T04:14:35;98897.88;;;4.25;62.12
69622;BME280;56841;55.964;37.674;2023-03-15T04:17:03;98885.91;;;4.23;61.83
69622;BME280;56841;55.964;37.674;2023-03-15T04:19:30;98881.66;;;4.22;62.09
69622;BME280;56841;55.964;37.674;2023-03-15T04:21:56;98887.59;;;4.24;61.94
69622;BME280;56841;55.964;37.674;2023-03-15T04:24:30;98889.50;;;4.22;62.22
69622;BME280;56841;55.964;37.674;2023-03-15T04:27:02;98887.28;;;4.27;62.25
69622;BME280;56841;55.964;37.674;2023-03-15T04:29:46;98892.66;;;4.25;62.15
69622;BME280;56841;55.964;37.674;2023-03-15T04:32:31;98900.78;;;4.22;62.12
69622;BME280;56841;55.964;37.674;2023-03-15T04:35:13;98901.06;;;4.19;62.25
69622;BME280;56841;55.964;37.674;2023-03-15T04:37:58;98892.50;;;4.27;62.11
69622;BME280;56841;55.964;37.674;2023-03-15T04:40:44;98904.63;;;4.28;62.16
69622;BME280;56841;55.964;37.674;2023-03-15T04:43:33;98903.47;;;4.31;62.04
69622;BME280;56841;55.964;37.674;2023-03-15T04:46:19;98906.78;;;4.33;61.90
69622;BME280;56841;55.964;37.674;2023-03-15T04:49:23;98910.91;;;4.35;61.78
69622;BME280;56841;55.964;37.674;2023-03-15T04:52:29;98922.56;;;4.41;61.62
69622;BME280;56841;55.964;37.674;2023-03-15T04:55:27;98930.09;;;4.44;61.46
69622;BME280;56841;55.964;37.674;2023-03-15T04:58:17;98939.63;;;4.45;61.12
69622;BME280;56841;55.964;37.674;2023-03-15T05:01:01;98945.13;;;4.42;61.14
69622;BME280;56841;55.964;37.674;2023-03-15T05:03:38;98943.47;;;4.41;61.15
69622;BME280;56841;55.964;37.674;2023-03-15T05:06:24;98946.44;;;4.56;60.92
69622;BME280;56841;55.964;37.674;2023-03-15T05:09:25;98955.63;;;4.60;60.70
69622;BME280;56841;55.964;37.674;2023-03-15T05:12:12;98948.25;;;4.55;60.32
69622;BME280;56841;55.964;37.674;2023-03-15T05:15:00;98960.94;;;4.68;60.13
69622;BME280;56841;55.964;37.674;2023-03-15T05:17:56;98957.44;;;4.59;59.93
69622;BME280;56841;55.964;37.674;2023-03-15T05:20:57;98960.88;;;4.60;59.99
69622;BME280;56841;55.964;37.674;2023-03-15T05:23:37;98960.94;;;4.68;59.87
69622;BME280;56841;55.964;37.674;2023-03-15T05:26:21;98962.16;;;4.73;60.27
69622;BME280;56841;55.964;37.674;2023-03-15T05:29:14;98972.72;;;4.82;59.40
69622;BME280;56841;55.964;37.674;2023-03-15T05:31:59;98973.03;;;4.79;59.32
69622;BME280;56841;55.964;37.674;2023-03-15T05:34:49;98963.22;;;4.81;59.08
69622;BME280;56841;55.964;37.674;2023-03-15T05:37:29;98964.97;;;4.90;59.13
69622;BME280;56841;55.964;37.674;2023-03-15T05:40:13;98974.75;;;4.88;59.41
69622;BME280;56841;55.964;37.674;2023-03-15T05:43:12;98965.91;;;4.89;59.04
69622;BME280;56841;55.964;37.674;2023-03-15T05:45:53;98961.66;;;4.88;59.62
69622;BME280;56841;55.964;37.674;2023-03-15T05:48:24;98965.63;;;4.92;59.10
69622;BME280;56841;55.964;37.674;2023-03-15T05:50:57;98972.22;;;4.96;59.09
69622;BME280;56841;55.964;37.674;2023-03-15T05:53:44;98962.81;;;5.03;58.42
69622;BME280;56841;55.964;37.674;2023-03-15T05:56:27;98971.19;;;5.07;58.38
69622;BME280;56841;55.964;37.674;2023-03-15T05:59:22;98978.34;;;5.05;58.26
69622;BME280;56841;55.964;37.674;2023-03-15T06:02:17;98984.88;;;5.18;58.14
69622;BME280;56841;55.964;37.674;2023-03-15T06:04:54;98973.13;;;5.22;57.83
69622;BME280;56841;55.964;37.674;2023-03-15T06:07:24;98992.38;;;5.13;57.58
69622;BME280;56841;55.964;37.674;2023-03-15T06:09:50;98989.13;;;5.19;57.34
69622;BME280;56841;55.964;37.674;2023-03-15T06:12:16;98987.59;;;5.27;57.26
69622;BME280;56841;55.964;37.674;2023-03-15T06:14:42;98985.03;;;5.17;57.77
69622;BME280;56841;55.964;37.674;2023-03-15T06:17:10;98972.31;;;5.22;57.12
69622;BME280;56841;55.964;37.674;2023-03-15T06:19:36;98993.47;;;5.29;57.33
69622;BME280;56841;55.964;37.674;2023-03-15T06:22:02;98994.41;;;5.37;56.82
69622;BME280;56841;55.964;37.674;2023-03-15T06:24:50;98994.63;;;5.44;56.60
69622;BME280;56841;55.964;37.674;2023-03-15T06:27:16;99002.84;;;5.49;56.25
69622;BME280;56841;55.964;37.674;2023-03-15T06:29:50;99000.91;;;5.51;56.23
69622;BME280;56841;55.964;37.674;2023-03-15T06:32:18;99006.88;;;5.61;55.86
69622;BME280;56841;55.964;37.674;2023-03-15T06:34:44;99010.84;;;5.65;55.37
69622;BME280;56841;55.964;37.674;2023-03-15T06:37:12;98998.22;;;5.87;55.32
69622;BME280;56841;55.964;37.674;2023-03-15T06:39:39;99002.09;;;5.75;55.01
69622;BME280;56841;55.964;37.674;2023-03-15T06:42:05;98994.56;;;5.98;54.91
69622;BME280;56841;55.964;37.674;2023-03-15T06:44:34;98996.28;;;5.89;54.58
69622;BME280;56841;55.964;37.674;2023-03-15T06:47:03;99004.63;;;6.02;54.58
69622;BME280;56841;55.964;37.674;2023-03-15T06:49:29;99026.19;;;6.22;54.54
69622;BME280;56841;55.964;37.674;2023-03-15T06:51:56;99017.81;;;6.18;54.35
69622;BME280;56841;55.964;37.674;2023-03-15T06:54:22;99028.66;;;6.24;54.29
69622;BME280;56841;55.964;37.674;2023-03-15T06:56:48;99023.78;;;6.29;53.73
69622;BME280;56841;55.964;37.674;2023-03-15T06:59:14;99033.31;;;6.30;54.27
69622;BME280;56841;55.964;37.674;2023-03-15T07:01:40;99030.44;;;5.97;54.49
69622;BME280;56841;55.964;37.674;2023-03-15T07:04:06;99036.88;;;6.03;54.73
69622;BME280;56841;55.964;37.674;2023-03-15T07:06:34;99029.94;;;5.93;54.70
69622;BME280;56841;55.964;37.674;2023-03-15T07:09:00;99028.50;;;5.99;55.21
69622;BME280;56841;55.964;37.674;2023-03-15T07:11:26;99028.63;;;6.15;54.80
69622;BME280;56841;55.964;37.674;2023-03-15T07:13:52;99033.28;;;6.04;54.92
69622;BME280;56841;55.964;37.674;2023-03-15T07:16:18;99032.53;;;5.93;55.28
69622;BME280;56841;55.964;37.674;2023-03-15T07:18:44;99047.28;;;6.12;54.82
69622;BME280;56841;55.964;37.674;2023-03-15T07:21:09;99042.25;;;6.01;55.01
69622;BME280;56841;55.964;37.674;2023-03-15T07:23:35;99045.69;;;6.20;55.24
69622;BME280;56841;55.964;37.674;2023-03-15T07:26:01;99051.66;;;6.30;55.02
69622;BME280;56841;55.964;37.674;2023-03-15T07:28:27;99038.09;;;6.43;54.28
69622;BME280;56841;55.964;37.674;2023-03-15T07:31:01;99044.50;;;6.40;54.30
69622;BME280;56841;55.964;37.674;2023-03-15T07:33:30;99050.31;;;6.52;54.24
69622;BME280;56841;55.964;37.674;2023-03-15T07:35:57;99046.03;;;6.51;54.45
69622;BME280;56841;55.964;37.674;2023-03-15T07:38:25;99057.31;;;6.43;54.12
69622;BME280;56841;55.964;37.674;2023-03-15T07:40:51;99043.56;;;6.49;54.14
69622;BME280;56841;55.964;37.674;2023-03-15T07:43:17;99044.06;;;6.53;53.94
69622;BME280;56841;55.964;37.674;2023-03-15T07:45:47;99045.13;;;6.60;54.02
69622;BME280;56841;55.964;37.674;2023-03-15T07:48:13;99043.34;;;6.69;53.50
69622;BME280;56841;55.964;37.674;2023-03-15T07:50:39;99050.28;;;6.78;53.46
69622;BME280;56841;55.964;37.674;2023-03-15T07:53:05;99040.22;;;6.65;53.77
69622;BME280;56841;55.964;37.674;2023-03-15T07:55:32;99045.44;;;6.91;53.48
69622;BME280;56841;55.964;37.674;2023-03-15T07:57:58;99044.13;;;7.03;52.98
69622;BME280;56841;55.964;37.674;2023-03-15T08:00:24;99049.06;;;7.06;52.91
69622;BME280;56841;55.964;37.674;2023-03-15T08:02:50;99052.00;;;6.95;52.89
69622;BME280;56841;55.964;37.674;2023-03-15T08:05:16;99064.69;;;7.08;52.89
69622;BME280;56841;55.964;37.674;2023-03-15T08:07:48;99060.88;;;7.02;53.22
69622;BME280;56841;55.964;37.674;2023-03-15T08:10:16;99064.25;;;6.86;53.44
69622;BME280;56841;55.964;37.674;2023-03-15T08:12:42;99069.34;;;6.88;53.78
69622;BME280;56841;55.964;37.674;2023-03-15T08:15:10;99066.38;;;6.83;53.83
69622;BME280;56841;55.964;37.674;2023-03-15T08:17:37;99071.66;;;6.91;53.77
69622;BME280;56841;55.964;37.674;2023-03-15T08:20:04;99070.59;;;7.10;54.02
69622;BME280;56841;55.964;37.674;2023-03-15T08:22:30;99073.09;;;7.20;53.64
69622;BME280;56841;55.964;37.674;2023-03-15T08:24:56;99073.88;;;7.12;53.96
69622;BME280;56841;55.964;37.674;2023-03-15T08:27:23;99076.91;;;7.33;53.89
69622;BME280;56841;55.964;37.674;2023-03-15T08:29:49;99061.91;;;7.18;53.71
69622;BME280;56841;55.964;37.674;2023-03-15T08:32:17;99074.69;;;7.12;53.94
69622;BME280;56841;55.964;37.674;2023-03-15T08:34:44;99077.47;;;7.11;54.09
69622;BME280;56841;55.964;37.674;2023-03-15T08:37:10;99063.47;;;6.94;53.97
69622;BME280;56841;55.964;37.674;2023-03-15T08:39:39;99083.00;;;7.00;54.13
69622;BME280;56841;55.964;37.674;2023-03-15T08:42:05;99077.94;;;6.98;53.99
69622;BME280;56841;55.964;37.674;2023-03-15T08:44:31;99073.72;;;7.13;54.14
69622;BME280;56841;55.964;37.674;2023-03-15T08:46:58;99058.38;;;6.93;53.85
69622;BME280;56841;55.964;37.674;2023-03-15T08:49:23;99073.63;;;6.89;54.51
69622;BME280;56841;55.964;37.674;2023-03-15T08:51:49;99071.47;;;6.84;54.66
69622;BME280;56841;55.964;37.674;2023-03-15T08:54:16;99069.47;;;6.78;54.46
69622;BME280;56841;55.964;37.674;2023-03-15T08:56:42;99070.59;;;6.76;55.03
69622;BME280;56841;55.964;37.674;2023-03-15T08:59:08;99043.34;;;6.69;55.07
69622;BME280;56841;55.964;37.674;2023-03-15T09:01:35;99064.34;;;6.69;55.28
69622;BME280;56841;55.964;37.674;2023-03-15T09:04:01;99068.56;;;6.61;55.77
69622;BME280;56841;55.964;37.674;2023-03-15T09:06:27;99064.03;;;6.72;55.79
69622;BME280;56841;55.964;37.674;2023-03-15T09:08:53;99061.03;;;7.01;55.48
69622;BME280;56841;55.964;37.674;2023-03-15T09:11:20;99064.13;;;6.96;55.47
69622;BME280;56841;55.964;37.674;2023-03-15T09:13:46;99062.25;;;7.15;55.29
69622;BME280;56841;55.964;37.674;2023-03-15T09:16:12;99059.63;;;7.23;55.02
69622;BME280;56841;55.964;37.674;2023-03-15T09:18:38;99061.97;;;7.34;55.21
69622;BME280;56841;55.964;37.674;2023-03-15T09:21:05;99056.81;;;7.16;55.54
69622;BME280;56841;55.964;37.674;2023-03-15T09:23:31;99054.72;;;7.28;55.85
69622;BME280;56841;55.964;37.674;2023-03-15T09:25:57;99050.63;;;7.25;55.82
69622;BME280;56841;55.964;37.674;2023-03-15T09:28:23;99043.03;;;7.14;56.15
69622;BME280;56841;55.964;37.674;2023-03-15T09:30:50;99056.63;;;7.09;56.64
69622;BME280;56841;55.964;37.674;2023-03-15T09:33:16;99065.53;;;7.17;56.71
69622;BME280;56841;55.964;37.674;2023-03-15T09:35:41;99060.31;;;7.41;56.42
69622;BME280;56841;55.964;37.674;2023-03-15T09:38:08;99059.19;;;7.44;56.29
69622;BME280;56841;55.964;37.674;2023-03-15T09:40:40;99073.00;;;7.46;56.48
69622;BME280;56841;55.964;37.674;2023-03-15T09:48:56;99071.72;;;7.07;57.51
69622;BME280;56841;55.964;37.674;2023-03-15T09:56:35;99086.41;;;7.34;57.46
69622;BME280;56841;55.964;37.674;2023-03-15T09:59:02;99079.69;;;7.32;57.21
69622;BME280;56841;55.964;37.674;2023-03-15T10:01:31;99077.41;;;7.45;57.17
69622;BME280;56841;55.964;37.674;2023-03-15T10:06:54;99083.16;;;7.41;57.35
69622;BME280;56841;55.964;37.674;2023-03-15T10:09:23;99085.94;;;7.39;57.65
69622;BME280;56841;55.964;37.674;2023-03-15T10:20:19;99072.16;;;7.45;57.65
69622;BME280;56841;55.964;37.674;2023-03-15T10:22:57;99086.31;;;7.69;57.18
69622;BME280;56841;55.964;37.674;2023-03-15T10:25:28;99096.72;;;7.87;56.91
69622;BME280;56841;55.964;37.674;2023-03-15T10:30:34;99079.78;;;8.05;56.24
69622;BME280;56841;55.964;37.674;2023-03-15T10:33:05;99090.81;;;8.09;56.12
69622;BME280;56841;55.964;37.674;2023-03-15T10:35:37;99092.44;;;8.35;55.84
69622;BME280;56841;55.964;37.674;2023-03-15T10:38:16;99087.72;;;8.38;55.51
69622;BME280;56841;55.964;37.674;2023-03-15T10:40:43;99077.81;;;8.48;55.23
69622;BME280;56841;55.964;37.674;2023-03-15T10:43:19;99082.41;;;8.46;55.20
69622;BME280;56841;55.964;37.674;2023-03-15T10:45:57;99085.03;;;8.30;55.41
69622;BME280;56841;55.964;37.674;2023-03-15T10:48:25;99074.69;;;8.53;54.99
69622;BME280;56841;55.964;37.674;2023-03-15T10:50:51;99081.44;;;8.56;54.85
69622;BME280;56841;55.964;37.674;2023-03-15T10:53:19;99079.13;;;8.52;55.25
69622;BME280;56841;55.964;37.674;2023-03-15T10:56:02;99083.94;;;8.96;54.56
69622;BME280;56841;55.964;37.674;2023-03-15T10:58:45;99084.59;;;8.98;54.12
69622;BME280;56841;55.964;37.674;2023-03-15T11:01:32;99078.00;;;9.02;54.11
69622;BME280;56841;55.964;37.674;2023-03-15T11:04:10;99078.72;;;8.80;54.40
69622;BME280;56841;55.964;37.674;2023-03-15T11:06:48;99089.22;;;8.96;54.12
69622;BME280;56841;55.964;37.674;2023-03-15T11:09:20;99083.63;;;8.99;53.99
69622;BME280;56841;55.964;37.674;2023-03-15T11:11:56;99075.09;;;8.89;54.11
69622;BME280;56841;55.964;37.674;2023-03-15T11:14:22;99065.09;;;8.76;54.41
69622;BME280;56841;55.964;37.674;2023-03-15T11:16:52;99068.25;;;8.64;54.92
69622;BME280;56841;55.964;37.674;2023-03-15T11:19:21;99073.69;;;8.54;55.33
69622;BME280;56841;55.964;37.674;2023-03-15T11:21:48;99065.06;;;8.85;54.81
69622;BME280;56841;55.964;37.674;2023-03-15T11:24:27;99064.56;;;8.89;54.60
69622;BME280;56841;55.964;37.674;2023-03-15T11:26:55;99052.34;;;8.96;54.51
69622;BME280;56841;55.964;37.674;2023-03-15T11:31:48;99039.31;;;9.03;54.33
69622;BME280;56841;55.964;37.674;2023-03-15T11:37:04;99058.63;;;8.87;54.75
69622;BME280;56841;55.964;37.674;2023-03-15T11:45:19;99049.44;;;8.75;55.06
69622;BME280;56841;55.964;37.674;2023-03-15T11:47:58;99057.03;;;8.70;55.28
69622;BME280;56841;55.964;37.674;2023-03-15T11:50:27;99067.72;;;8.76;55.36
69622;BME280;56841;55.964;37.674;2023-03-15T11:52:54;99054.56;;;8.76;55.46
69622;BME280;56841;55.964;37.674;2023-03-15T11:55:26;99061.78;;;8.83;55.19
69622;BME280;56841;55.964;37.674;2023-03-15T11:57:52;99060.75;;;8.92;54.95
69622;BME280;56841;55.964;37.674;2023-03-15T12:03:26;99049.28;;;8.76;55.36
69622;BME280;56841;55.964;37.674;2023-03-15T12:11:36;99054.56;;;8.76;55.62
69622;BME280;56841;55.964;37.674;2023-03-15T12:14:04;99059.63;;;8.86;55.55
69622;BME280;56841;55.964;37.674;2023-03-15T12:16:45;99061.59;;;8.92;55.13
69622;BME280;56841;55.964;37.674;2023-03-15T12:19:16;99060.25;;;8.88;55.30
69622;BME280;56841;55.964;37.674;2023-03-15T12:21:51;99073.22;;;9.06;54.95
69622;BME280;56841;55.964;37.674;2023-03-15T12:24:30;99061.28;;;9.27;54.36
69622;BME280;56841;55.964;37.674;2023-03-15T12:27:05;99063.94;;;9.18;54.59
69622;BME280;56841;55.964;37.674;2023-03-15T12:29:40;99071.81;;;9.27;54.44
69622;BME280;56841;55.964;37.674;2023-03-15T12:32:12;99067.09;;;9.14;54.55
69622;BME280;56841;55.964;37.674;2023-03-15T12:37:17;99063.59;;;9.21;54.46
69622;BME280;56841;55.964;37.674;2023-03-15T12:39:48;99074.44;;;8.87;55.18
69622;BME280;56841;55.964;37.674;2023-03-15T12:44:53;99080.03;;;8.92;55.41
69622;BME280;56841;55.964;37.674;2023-03-15T12:47:19;99069.69;;;8.74;55.67
69622;BME280;56841;55.964;37.674;2023-03-15T12:49:45;99068.88;;;8.74;55.98
69622;BME280;56841;55.964;37.674;2023-03-15T12:54:44;99072.84;;;8.70;56.13
69622;BME280;56841;55.964;37.674;2023-03-15T12:57:13;99070.78;;;8.96;55.38
69622;BME280;56841;55.964;37.674;2023-03-15T13:02:35;99076.34;;;9.01;55.55
69622;BME280;56841;55.964;37.674;2023-03-15T13:07:53;99068.28;;;9.03;55.20
69622;BME280;56841;55.964;37.674;2023-03-15T13:16:03;99082.66;;;8.92;55.52
69622;BME280;56841;55.964;37.674;2023-03-15T13:18:46;99081.09;;;8.50;56.20
69622;BME280;56841;55.964;37.674;2023-03-15T13:21:35;99068.44;;;8.46;56.81
69622;BME280;56841;55.964;37.674;2023-03-15T13:24:10;99068.09;;;8.57;56.33
69622;BME280;56841;55.964;37.674;2023-03-15T13:29:14;99073.50;;;9.73;53.70
69622;BME280;56841;55.964;37.674;2023-03-15T13:31:44;99066.94;;;10.53;51.44
69622;BME280;56841;55.964;37.674;2023-03-15T13:34:30;99056.38;;;10.98;50.04
69622;BME280;56841;55.964;37.674;2023-03-15T13:36:59;99061.34;;;10.63;50.92
69622;BME280;56841;55.964;37.674;2023-03-15T13:39:32;99061.38;;;10.25;51.44
69622;BME280;56841;55.964;37.674;2023-03-15T13:42:02;99055.72;;;10.36;51.43
69622;BME280;56841;55.964;37.674;2023-03-15T13:44:30;99063.38;;;10.23;51.56
69622;BME280;56841;55.964;37.674;2023-03-15T13:46:57;99072.13;;;10.61;50.94
69622;BME280;56841;55.964;37.674;2023-03-15T13:49:28;99055.16;;;11.15;49.33
69622;BME280;56841;55.964;37.674;2023-03-15T13:51:54;99065.94;;;11.50;48.65
69622;BME280;56841;55.964;37.674;2023-03-15T13:54:26;99062.16;;;12.23;47.19
69622;BME280;56841;55.964;37.674;2023-03-15T13:57:11;99056.78;;;12.38;46.42
69622;BME280;56841;55.964;37.674;2023-03-15T13:59:46;99063.16;;;12.22;46.65
69622;BME280;56841;55.964;37.674;2023-03-15T14:02:37;99055.22;;;11.94;46.85
69622;BME280;56841;55.964;37.674;2023-03-15T14:05:16;99061.31;;;11.95;46.96
69622;BME280;56841;55.964;37.674;2023-03-15T14:07:47;99075.03;;;11.83;47.24
69622;BME280;56841;55.964;37.674;2023-03-15T14:12:43;99058.47;;;12.46;45.89
69622;BME280;56841;55.964;37.674;2023-03-15T14:15:17;99079.53;;;11.68;47.27
69622;BME280;56841;55.964;37.674;2023-03-15T14:17:59;99075.09;;;11.32;48.36
69622;BME280;56841;55.964;37.674;2023-03-15T14:20:39;99070.72;;;11.82;47.44
69622;BME280;56841;55.964;37.674;2023-03-15T14:23:12;99062.59;;;12.55;45.98
69622;BME280;56841;55.964;37.674;2023-03-15T14:25:38;99062.84;;;12.32;46.03
69622;BME280;56841;55.964;37.674;2023-03-15T14:28:05;99068.06;;;12.53;45.48
69622;BME280;56841;55.964;37.674;2023-03-15T14:30:34;99062.69;;;12.12;46.25
69622;BME280;56841;55.964;37.674;2023-03-15T14:33:02;99069.84;;;10.88;48.61
69622;BME280;56841;55.964;37.674;2023-03-15T14:35:30;99069.88;;;10.35;50.22
69622;BME280;56841;55.964;37.674;2023-03-15T14:38:08;99073.59;;;9.80;51.55
69622;BME280;56841;55.964;37.674;2023-03-15T14:40:40;99078.66;;;9.36;52.72